Terminal Aerodrome Forecast
Issued by NWS Paducah, KY

Home | Current Version | Previous Version | Graphics & Text | Print | Product List | Glossary On
Versions: 1 2 3 4 5 6 7 8 9 10 11 12 13 14 15
991
FTUS43 KPAH 042022 AAA
TAFEVV
TAF AMD
KEVV 042022Z 0420/0518 20007KT 3SM -RADZ BR BKN009 OVC019
      TEMPO 0420/0423 2SM -RA BR OVC005
     FM050000 28007KT 4SM BR SCT007 OVC019
     FM050500 VRB03KT P6SM OVC030
     FM050900 30002KT 1/2SM FG VV007
     FM051400 07005KT 4SM BR OVC050=

USA.gov is the U.S. government's official web portal to all federal, state and local government web resources and services.